createdAt,value
2023-05-07T00:00:27.575Z,7.27
2023-05-07T00:03:31.394Z,7.03
2023-05-07T00:06:36.925Z,8.27
2023-05-07T00:09:41.119Z,7.27
2023-05-07T00:12:44.997Z,6.50
2023-05-07T00:15:48.714Z,7.43
2023-05-07T00:18:52.479Z,7.33
2023-05-07T00:21:58.148Z,6.73
2023-05-07T00:25:01.960Z,7.43
2023-05-07T00:28:05.859Z,7.50
2023-05-07T00:31:09.785Z,5.37
2023-05-07T00:34:13.591Z,8.80
2023-05-07T00:37:19.269Z,14.43
2023-05-07T00:40:23.120Z,5.93
2023-05-07T00:43:26.866Z,6.60
2023-05-07T00:46:31.590Z,7.63
2023-05-07T00:49:42.331Z,11.07
2023-05-07T00:52:47.610Z,6.63
2023-05-07T00:55:51.542Z,11.07
2023-05-07T00:58:55.622Z,8.13
2023-05-07T01:01:59.490Z,8.70
2023-05-07T01:05:04.485Z,10.73
2023-05-07T01:08:10.273Z,8.93
2023-05-07T01:11:14.721Z,14.10
2023-05-07T01:14:18.679Z,8.73
2023-05-07T01:17:22.412Z,7.53
2023-05-07T01:20:27.259Z,6.60
2023-05-07T01:23:36.866Z,8.77
2023-05-07T01:26:41.060Z,8.73
2023-05-07T01:29:45.320Z,6.93
2023-05-07T01:32:54.268Z,8.63
2023-05-07T01:35:59.740Z,14.03
2023-05-07T01:39:05.587Z,8.70
2023-05-07T01:42:09.907Z,11.53
2023-05-07T01:45:13.970Z,11.17
2023-05-07T01:48:18.345Z,17.20
2023-05-07T01:51:23.474Z,14.13
2023-05-07T01:54:30.428Z,14.73
2023-05-07T01:57:35.575Z,12.87
2023-05-07T02:00:39.591Z,13.97
2023-05-07T02:03:44.280Z,12.17
2023-05-07T02:06:56.978Z,15.70
2023-05-07T02:10:02.553Z,13.90
2023-05-07T02:13:06.387Z,10.20
2023-05-07T02:16:10.241Z,10.23
2023-05-07T02:19:15.560Z,7.40
2023-05-07T02:22:19.231Z,9.23
2023-05-07T02:25:24.530Z,7.00
2023-05-07T02:28:28.276Z,7.87
2023-05-07T02:31:36.771Z,8.23
2023-05-07T02:34:40.635Z,9.93
2023-05-07T02:37:44.259Z,8.83
2023-05-07T02:40:49.617Z,9.33
2023-05-07T02:43:53.788Z,7.57
2023-05-07T02:46:57.455Z,7.80
2023-05-07T02:50:02.062Z,8.03
2023-05-07T02:53:07.032Z,10.53
2023-05-07T02:56:12.186Z,8.60
2023-05-07T02:59:15.922Z,9.03
2023-05-07T03:02:20.227Z,9.50
2023-05-07T03:05:24.012Z,8.97
2023-05-07T03:08:27.704Z,10.03
2023-05-07T03:11:32.880Z,9.60
2023-05-07T03:14:36.449Z,9.53
2023-05-07T03:17:40.357Z,9.83
2023-05-07T03:20:44.030Z,11.03
2023-05-07T03:23:47.789Z,11.07
2023-05-07T03:26:52.886Z,14.00
2023-05-07T03:29:57.013Z,12.50
2023-05-07T03:33:01.105Z,18.80
2023-05-07T03:36:05.991Z,13.37
2023-05-07T03:39:09.769Z,11.67
2023-05-07T03:42:18.433Z,12.97
2023-05-07T03:45:25.164Z,9.43
2023-05-07T03:48:37.673Z,11.27
2023-05-07T03:51:42.146Z,10.73
2023-05-07T03:54:45.828Z,10.70
2023-05-07T03:57:54.397Z,9.03
2023-05-07T04:00:58.473Z,10.57
2023-05-07T04:04:05.687Z,12.93
2023-05-07T04:07:11.918Z,10.77
2023-05-07T04:10:19.571Z,10.00
2023-05-07T04:13:27.635Z,9.07
2023-05-07T04:16:32.260Z,11.50
2023-05-07T04:19:36.469Z,11.70
2023-05-07T04:22:40.274Z,12.80
2023-05-07T04:25:44.123Z,10.50
2023-05-07T04:29:01.712Z,12.87
2023-05-07T04:32:10.326Z,9.83
2023-05-07T04:35:17.212Z,13.93
2023-05-07T04:38:21.470Z,10.57
2023-05-07T04:41:27.985Z,10.73
2023-05-07T04:44:33.977Z,9.07
2023-05-07T04:47:37.653Z,10.13
2023-05-07T04:50:41.489Z,11.60
2023-05-07T04:53:47.299Z,11.13
2023-05-07T04:56:51.398Z,10.53
2023-05-07T04:59:57.071Z,10.37
2023-05-07T05:03:01.332Z,9.97
2023-05-07T05:06:06.824Z,8.53
2023-05-07T05:09:12.382Z,12.00
2023-05-07T05:12:17.852Z,11.70
2023-05-07T05:15:23.477Z,8.80
2023-05-07T05:18:27.561Z,12.80
2023-05-07T05:21:31.461Z,12.27
2023-05-07T05:24:41.047Z,14.00
2023-05-07T05:27:45.484Z,10.00
2023-05-07T05:30:51.513Z,12.17
2023-05-07T05:33:56.242Z,10.63
2023-05-07T05:37:01.779Z,10.57
2023-05-07T05:40:06.664Z,11.93
2023-05-07T05:43:10.775Z,10.13
2023-05-07T05:46:17.886Z,9.03
2023-05-07T05:49:21.864Z,13.70
2023-05-07T05:52:26.415Z,15.60
2023-05-07T05:55:33.611Z,12.53
2023-05-07T05:58:37.652Z,11.40
2023-05-07T06:01:45.900Z,15.82
2023-05-07T06:04:49.830Z,9.75
2023-05-07T06:07:56.694Z,10.50
2023-05-07T06:11:01.819Z,17.00
2023-05-07T06:14:09.132Z,9.50
2023-05-07T06:17:14.824Z,12.93
2023-05-07T06:20:19.162Z,14.88
2023-05-07T06:23:23.157Z,10.30
2023-05-07T06:26:27.069Z,12.93
2023-05-07T06:29:32.792Z,11.60
2023-05-07T06:32:39.652Z,15.38
2023-05-07T06:35:43.814Z,11.20
2023-05-07T06:38:47.763Z,9.55
2023-05-07T06:41:52.844Z,9.55
2023-05-07T06:45:04.544Z,9.95
2023-05-07T06:48:10.164Z,13.52
2023-05-07T06:51:23.830Z,10.35
2023-05-07T06:54:28.324Z,8.68
2023-05-07T06:57:32.503Z,9.10
2023-05-07T07:00:36.505Z,8.40
2023-05-07T07:03:41.871Z,8.73
2023-05-07T07:06:45.829Z,8.68
2023-05-07T07:09:52.837Z,8.57
2023-05-07T07:12:57.294Z,11.02
2023-05-07T07:16:02.801Z,11.10
2023-05-07T07:19:08.418Z,9.18
2023-05-07T07:22:13.074Z,10.27
2023-05-07T07:25:16.989Z,11.35
2023-05-07T07:28:23.428Z,12.30
2023-05-07T07:31:27.537Z,7.85
2023-05-07T07:34:32.920Z,9.48
2023-05-07T07:37:38.573Z,8.95
2023-05-07T07:40:42.607Z,8.38
2023-05-07T07:43:49.809Z,9.70
2023-05-07T07:46:56.830Z,9.65
2023-05-07T07:50:04.193Z,9.52
2023-05-07T07:53:08.296Z,7.75
2023-05-07T07:56:12.720Z,9.82
2023-05-07T07:59:20.058Z,10.73
2023-05-07T08:02:26.652Z,10.30
2023-05-07T08:05:32.325Z,12.15
2023-05-07T08:08:37.108Z,13.40
2023-05-07T08:11:41.329Z,9.82
2023-05-07T08:14:45.331Z,9.20
2023-05-07T08:17:49.193Z,11.50
2023-05-07T08:20:55.054Z,10.18
2023-05-07T08:24:02.451Z,10.45
2023-05-07T08:27:06.987Z,9.68
2023-05-07T08:30:12.897Z,7.30
2023-05-07T08:33:17.661Z,7.53
2023-05-07T08:36:23.037Z,5.93
2023-05-07T08:39:27.082Z,7.30
2023-05-07T08:42:33.860Z,9.38
2023-05-07T08:45:38.033Z,12.13
2023-05-07T08:48:42.335Z,8.63
2023-05-07T08:51:53.897Z,6.20
2023-05-07T08:54:58.957Z,9.90
2023-05-07T08:58:03.750Z,5.20
2023-05-07T09:01:11.987Z,9.93
2023-05-07T09:04:16.102Z,8.48
2023-05-07T09:07:24.035Z,6.28
2023-05-07T09:10:28.745Z,6.38
2023-05-07T09:13:32.769Z,11.70
2023-05-07T09:16:38.998Z,7.38
2023-05-07T09:19:42.946Z,5.70
2023-05-07T09:22:48.345Z,3.78
2023-05-07T09:26:03.176Z,4.95
2023-05-07T09:29:10.548Z,4.65
2023-05-07T09:32:14.746Z,7.55
2023-05-07T09:35:19.198Z,6.55
2023-05-07T09:38:30.144Z,3.55
2023-05-07T09:41:45.584Z,5.05
2023-05-07T09:45:02.438Z,8.48
2023-05-07T09:48:14.598Z,6.28
2023-05-07T09:51:24.744Z,7.47
2023-05-07T09:54:31.881Z,6.47
2023-05-07T09:57:37.346Z,4.20
2023-05-07T10:00:45.674Z,5.93
2023-05-07T10:03:54.247Z,6.03
2023-05-07T10:06:59.612Z,6.57
2023-05-07T10:10:07.334Z,8.02
2023-05-07T10:13:16.083Z,6.22
2023-05-07T10:16:25.338Z,4.03
2023-05-07T10:19:30.712Z,6.97
2023-05-07T10:22:41.277Z,5.18
2023-05-07T10:25:46.807Z,4.75
2023-05-07T10:29:03.854Z,4.20
2023-05-07T10:32:30.039Z,4.28
2023-05-07T10:35:38.680Z,6.40
2023-05-07T10:38:43.231Z,10.10
2023-05-07T10:41:50.477Z,5.13
2023-05-07T10:44:55.048Z,4.38
2023-05-07T10:51:28.292Z,2.70
2023-05-07T10:54:40.211Z,2.72
2023-05-07T10:57:49.724Z,4.90
2023-05-07T11:01:00.505Z,6.15
2023-05-07T11:04:16.584Z,4.93
2023-05-07T11:07:35.422Z,3.55
2023-05-07T11:10:55.328Z,4.60
2023-05-07T11:14:45.967Z,5.15
2023-05-07T11:18:10.602Z,6.10
2023-05-07T11:21:35.261Z,8.10
2023-05-07T11:25:02.764Z,3.53
2023-05-07T11:28:11.636Z,5.18
2023-05-07T11:31:27.384Z,3.67
2023-05-07T11:34:32.761Z,4.55
2023-05-07T11:37:37.290Z,6.13
2023-05-07T11:40:52.276Z,4.22
2023-05-07T11:44:01.064Z,3.92
2023-05-07T11:47:06.428Z,4.75
2023-05-07T11:50:12.230Z,4.80
2023-05-07T11:53:15.971Z,5.88
2023-05-07T11:56:21.155Z,4.50
2023-05-07T11:59:24.910Z,6.60
2023-05-07T12:02:31.017Z,4.85
2023-05-07T12:05:34.904Z,4.07
2023-05-07T12:08:40.036Z,3.47
2023-05-07T12:11:48.716Z,4.50
2023-05-07T12:14:52.481Z,5.28
2023-05-07T12:17:57.977Z,5.68
2023-05-07T12:21:02.671Z,3.45
2023-05-07T12:24:07.151Z,4.70
2023-05-07T12:27:12.136Z,5.40
2023-05-07T12:30:16.216Z,8.95
2023-05-07T12:33:26.092Z,5.60
2023-05-07T12:36:39.696Z,3.67
2023-05-07T12:39:47.511Z,3.97
2023-05-07T12:42:57.695Z,4.38
2023-05-07T12:46:05.803Z,4.60
2023-05-07T12:49:11.409Z,3.25
2023-05-07T12:52:15.980Z,4.70
2023-05-07T12:55:20.183Z,6.05
2023-05-07T12:58:28.295Z,5.75
2023-05-07T13:01:32.981Z,7.32
2023-05-07T13:04:38.534Z,3.30
2023-05-07T13:07:43.004Z,5.63
2023-05-07T13:10:46.685Z,4.22
2023-05-07T13:13:50.538Z,3.45
2023-05-07T13:16:54.255Z,4.88
2023-05-07T13:19:59.342Z,5.70
2023-05-07T13:23:05.515Z,4.90
2023-05-07T13:26:22.480Z,3.58
2023-05-07T13:29:31.582Z,5.00
2023-05-07T13:32:35.462Z,8.32
2023-05-07T13:35:41.085Z,4.47
2023-05-07T13:38:44.973Z,6.50
2023-05-07T13:41:48.709Z,4.95
2023-05-07T13:44:52.591Z,2.67
2023-05-07T13:47:57.809Z,4.07
2023-05-07T13:51:03.017Z,3.22
2023-05-07T13:54:06.952Z,5.05
2023-05-07T13:57:10.817Z,2.42
2023-05-07T14:00:15.723Z,5.05
2023-05-07T14:03:21.024Z,3.08
2023-05-07T14:06:26.400Z,3.83
2023-05-07T14:09:30.210Z,20.98
2023-05-07T14:12:34.436Z,3.38
2023-05-07T14:15:38.726Z,3.22
2023-05-07T14:18:42.507Z,2.78
2023-05-07T14:21:47.718Z,3.92
2023-05-07T14:25:05.403Z,3.15
2023-05-07T14:28:16.043Z,4.00
2023-05-07T14:31:19.851Z,4.72
2023-05-07T14:34:23.777Z,4.95
2023-05-07T14:37:29.505Z,3.42
2023-05-07T14:40:33.458Z,4.07
2023-05-07T14:43:37.205Z,3.75
2023-05-07T14:46:41.128Z,2.75
2023-05-07T14:49:44.807Z,4.30
2023-05-07T14:52:50.068Z,3.17
2023-05-07T14:55:53.926Z,4.45
2023-05-07T14:58:57.746Z,2.95
2023-05-07T15:02:03.783Z,4.15
2023-05-07T15:05:10.204Z,3.85
2023-05-07T15:08:15.616Z,5.10
2023-05-07T15:11:19.476Z,4.28
2023-05-07T15:14:23.644Z,2.80
2023-05-07T15:17:27.610Z,3.83
2023-05-07T15:20:31.612Z,6.68
2023-05-07T15:23:36.953Z,6.78
2023-05-07T15:26:40.472Z,2.80
2023-05-07T15:29:44.339Z,2.35
2023-05-07T15:32:48.715Z,5.32
2023-05-07T15:35:52.563Z,3.78
2023-05-07T15:38:57.771Z,2.38
2023-05-07T15:42:02.511Z,2.67
2023-05-07T15:45:07.285Z,4.13
2023-05-07T15:48:12.019Z,5.35
2023-05-07T15:51:15.881Z,4.45
2023-05-07T15:54:21.432Z,3.47
2023-05-07T15:57:25.556Z,4.95
2023-05-07T16:00:29.689Z,2.55
2023-05-07T16:03:34.407Z,3.88
2023-05-07T16:06:38.283Z,4.15
2023-05-07T16:09:43.381Z,3.22
2023-05-07T16:12:47.183Z,3.50
2023-05-07T16:15:50.995Z,5.60
2023-05-07T16:18:54.804Z,5.78
2023-05-07T16:21:58.879Z,3.95
2023-05-07T16:25:05.522Z,5.85
2023-05-07T16:28:09.328Z,5.60
2023-05-07T16:31:13.231Z,6.45
2023-05-07T16:34:17.009Z,3.58
2023-05-07T16:37:21.722Z,3.42
2023-05-07T16:40:27.349Z,5.78
2023-05-07T16:43:31.207Z,3.58
2023-05-07T16:46:35.033Z,5.07
2023-05-07T16:49:38.891Z,4.90
2023-05-07T16:52:42.667Z,4.55
2023-05-07T16:55:47.981Z,3.42
2023-05-07T16:58:51.813Z,4.13
2023-05-07T17:01:56.939Z,5.95
2023-05-07T17:05:01.570Z,3.47
2023-05-07T17:08:05.699Z,3.08
2023-05-07T17:11:10.977Z,5.47
2023-05-07T17:14:14.771Z,7.50
2023-05-07T17:17:18.761Z,5.63
2023-05-07T17:20:23.918Z,5.32
2023-05-07T17:23:27.821Z,7.07
2023-05-07T17:26:35.504Z,6.20
2023-05-07T17:29:39.303Z,7.57
2023-05-07T17:32:43.010Z,2.72
2023-05-07T17:35:46.823Z,9.88
2023-05-07T17:38:50.592Z,4.03
2023-05-07T17:41:55.860Z,4.72
2023-05-07T17:44:59.721Z,4.53
2023-05-07T17:48:03.907Z,3.25
2023-05-07T17:51:07.829Z,6.07
2023-05-07T17:54:11.854Z,5.15
2023-05-07T17:57:17.093Z,6.93
2023-05-07T18:00:21.178Z,6.78
2023-05-07T18:03:25.794Z,8.40
2023-05-07T18:06:29.632Z,4.60
2023-05-07T18:09:33.443Z,5.20
2023-05-07T18:12:38.687Z,5.10
2023-05-07T18:15:42.569Z,5.07
2023-05-07T18:18:47.190Z,7.97
2023-05-07T18:21:51.185Z,6.10
2023-05-07T18:24:56.188Z,5.82
2023-05-07T18:28:01.430Z,5.78
2023-05-07T18:31:06.311Z,4.47
2023-05-07T18:34:10.572Z,6.15
2023-05-07T18:37:14.298Z,7.13
2023-05-07T18:40:18.416Z,4.20
2023-05-07T18:43:23.600Z,8.00
2023-05-07T18:46:29.521Z,5.72
2023-05-07T18:49:33.350Z,5.50
2023-05-07T18:52:37.445Z,12.25
2023-05-07T18:55:41.581Z,8.85
2023-05-07T18:58:46.769Z,4.40
2023-05-07T19:01:50.684Z,7.82
2023-05-07T19:04:54.567Z,8.02
2023-05-07T19:07:58.449Z,8.88
2023-05-07T19:11:02.313Z,6.50
2023-05-07T19:14:07.619Z,8.60
2023-05-07T19:17:13.348Z,11.77
2023-05-07T19:20:17.125Z,8.85
2023-05-07T19:23:21.235Z,7.35
2023-05-07T19:26:25.241Z,7.95
2023-05-07T19:29:30.452Z,8.70
2023-05-07T19:32:34.292Z,7.93
2023-05-07T19:35:38.404Z,9.43
2023-05-07T19:38:42.132Z,6.00
2023-05-07T19:41:46.186Z,8.85
2023-05-07T19:44:51.517Z,8.50
2023-05-07T19:47:55.229Z,11.32
2023-05-07T19:51:00.168Z,11.80
2023-05-07T19:54:04.180Z,11.55
2023-05-07T19:57:08.022Z,8.55
2023-05-07T20:00:15.016Z,9.10
2023-05-07T20:03:19.516Z,6.07
2023-05-07T20:06:24.274Z,6.53
2023-05-07T20:09:28.024Z,6.50
2023-05-07T20:12:31.784Z,4.93
2023-05-07T20:15:38.100Z,4.53
2023-05-07T20:18:42.085Z,14.17
2023-05-07T20:21:46.187Z,8.25
2023-05-07T20:24:49.934Z,6.77
2023-05-07T20:27:53.956Z,7.10
2023-05-07T20:30:59.188Z,5.53
2023-05-07T20:34:03.271Z,8.77
2023-05-07T20:37:07.030Z,6.97
2023-05-07T20:40:11.878Z,6.67
2023-05-07T20:43:15.903Z,7.43
2023-05-07T20:46:23.394Z,7.40
2023-05-07T20:49:27.442Z,3.93
2023-05-07T20:52:31.229Z,8.50
2023-05-07T20:55:35.058Z,7.53
2023-05-07T20:58:38.814Z,8.27
2023-05-07T21:01:44.160Z,17.53
2023-05-07T21:04:48.040Z,14.23
2023-05-07T21:07:51.847Z,15.07
2023-05-07T21:10:55.998Z,12.87
2023-05-07T21:13:59.878Z,11.97
2023-05-07T21:17:07.352Z,13.53
2023-05-07T21:20:11.877Z,9.80
2023-05-07T21:23:15.877Z,9.40
2023-05-07T21:26:20.526Z,8.03
2023-05-07T21:29:24.953Z,7.07
2023-05-07T21:32:30.196Z,7.20
2023-05-07T21:35:34.026Z,4.67
2023-05-07T21:38:38.778Z,6.63
2023-05-07T21:41:42.593Z,4.63
2023-05-07T21:44:46.525Z,9.10
2023-05-07T21:47:51.787Z,7.17
2023-05-07T21:51:02.345Z,7.17
2023-05-07T21:54:07.065Z,4.07
2023-05-07T21:57:11.215Z,7.07
2023-05-07T22:00:16.592Z,5.60
2023-05-07T22:03:21.986Z,4.27
2023-05-07T22:06:26.563Z,3.57
2023-05-07T22:09:30.356Z,5.87
2023-05-07T22:12:34.161Z,5.90
2023-05-07T22:15:49.138Z,2.97
2023-05-07T22:19:01.694Z,3.50
2023-05-07T22:22:05.579Z,4.27
2023-05-07T22:25:10.844Z,4.10
2023-05-07T22:28:14.573Z,7.03
2023-05-07T22:31:18.401Z,5.70
2023-05-07T22:34:23.754Z,7.03
2023-05-07T22:37:27.726Z,6.87
2023-05-07T22:40:31.492Z,4.57
2023-05-07T22:43:35.493Z,4.20
2023-05-07T22:46:39.299Z,3.70
2023-05-07T22:49:44.381Z,11.17
2023-05-07T22:52:48.011Z,3.70
2023-05-07T22:55:51.859Z,7.10
2023-05-07T22:58:55.577Z,5.00
2023-05-07T23:01:59.674Z,4.97
2023-05-07T23:05:05.049Z,7.60
2023-05-07T23:08:08.914Z,6.27
2023-05-07T23:11:13.075Z,5.10
2023-05-07T23:14:16.850Z,3.67
2023-05-07T23:17:20.702Z,3.93
2023-05-07T23:20:25.903Z,4.13
2023-05-07T23:23:33.926Z,5.10
2023-05-07T23:26:37.760Z,3.33
2023-05-07T23:29:41.477Z,4.90
2023-05-07T23:32:45.151Z,3.90
2023-05-07T23:35:50.292Z,2.20
2023-05-07T23:38:53.942Z,4.07
2023-05-07T23:41:57.596Z,4.60
2023-05-07T23:45:01.452Z,8.70
2023-05-07T23:48:05.320Z,4.50
2023-05-07T23:51:10.616Z,6.93
2023-05-07T23:54:14.303Z,5.40
2023-05-07T23:57:17.979Z,5.27
